sensor_id;sensor_type;location;lat;lon;timestamp;P1;durP1;ratioP1;P2;durP2;ratioP2
27031;SDS011;14580;52.918;9.214;2023-03-03T00:01:43;33.10;;;15.97;;
27031;SDS011;14580;52.918;9.214;2023-03-03T00:04:10;32.57;;;15.60;;
27031;SDS011;14580;52.918;9.214;2023-03-03T00:06:36;25.57;;;14.63;;
27031;SDS011;14580;52.918;9.214;2023-03-03T00:09:03;30.10;;;15.20;;
27031;SDS011;14580;52.918;9.214;2023-03-03T00:11:29;31.80;;;15.87;;
27031;SDS011;14580;52.918;9.214;2023-03-03T00:13:57;30.07;;;15.03;;
27031;SDS011;14580;52.918;9.214;2023-03-03T00:18:55;34.30;;;17.07;;
27031;SDS011;14580;52.918;9.214;2023-03-03T00:21:27;34.80;;;16.47;;
27031;SDS011;14580;52.918;9.214;2023-03-03T00:26:46;26.57;;;14.63;;
27031;SDS011;14580;52.918;9.214;2023-03-03T00:32:18;28.67;;;15.23;;
27031;SDS011;14580;52.918;9.214;2023-03-03T00:34:50;27.07;;;14.50;;
27031;SDS011;14580;52.918;9.214;2023-03-03T00:37:25;30.63;;;15.03;;
27031;SDS011;14580;52.918;9.214;2023-03-03T00:39:57;31.90;;;15.27;;
27031;SDS011;14580;52.918;9.214;2023-03-03T00:42:39;31.17;;;15.37;;
27031;SDS011;14580;52.918;9.214;2023-03-03T00:45:16;28.90;;;14.43;;
27031;SDS011;14580;52.918;9.214;2023-03-03T00:47:52;28.53;;;13.33;;
27031;SDS011;14580;52.918;9.214;2023-03-03T00:50:30;29.43;;;14.80;;
27031;SDS011;14580;52.918;9.214;2023-03-03T00:53:15;28.63;;;14.67;;
27031;SDS011;14580;52.918;9.214;2023-03-03T00:55:45;27.30;;;14.97;;
27031;SDS011;14580;52.918;9.214;2023-03-03T00:58:13;29.57;;;15.87;;
27031;SDS011;14580;52.918;9.214;2023-03-03T01:00:42;33.30;;;15.60;;
27031;SDS011;14580;52.918;9.214;2023-03-03T01:03:12;31.03;;;15.10;;
27031;SDS011;14580;52.918;9.214;2023-03-03T01:05:41;27.57;;;14.80;;
27031;SDS011;14580;52.918;9.214;2023-03-03T01:08:08;28.70;;;13.93;;
27031;SDS011;14580;52.918;9.214;2023-03-03T01:10:38;27.90;;;14.17;;
27031;SDS011;14580;52.918;9.214;2023-03-03T01:13:17;21.83;;;12.80;;
27031;SDS011;14580;52.918;9.214;2023-03-03T01:15:47;29.07;;;13.80;;
27031;SDS011;14580;52.918;9.214;2023-03-03T01:18:14;28.10;;;14.20;;
27031;SDS011;14580;52.918;9.214;2023-03-03T01:20:41;25.43;;;13.53;;
27031;SDS011;14580;52.918;9.214;2023-03-03T01:23:07;27.27;;;13.37;;
27031;SDS011;14580;52.918;9.214;2023-03-03T01:25:34;28.03;;;14.00;;
27031;SDS011;14580;52.918;9.214;2023-03-03T01:28:01;24.47;;;12.80;;
27031;SDS011;14580;52.918;9.214;2023-03-03T01:30:27;26.60;;;13.13;;
27031;SDS011;14580;52.918;9.214;2023-03-03T01:32:55;26.07;;;13.33;;
27031;SDS011;14580;52.918;9.214;2023-03-03T01:35:22;29.07;;;13.73;;
27031;SDS011;14580;52.918;9.214;2023-03-03T01:37:49;27.30;;;12.33;;
27031;SDS011;14580;52.918;9.214;2023-03-03T01:40:17;30.67;;;13.23;;
27031;SDS011;14580;52.918;9.214;2023-03-03T01:42:48;26.23;;;13.67;;
27031;SDS011;14580;52.918;9.214;2023-03-03T01:53:45;23.87;;;13.50;;
27031;SDS011;14580;52.918;9.214;2023-03-03T01:56:19;26.07;;;12.80;;
27031;SDS011;14580;52.918;9.214;2023-03-03T01:58:50;27.07;;;14.03;;
27031;SDS011;14580;52.918;9.214;2023-03-03T02:01:28;24.43;;;13.07;;
27031;SDS011;14580;52.918;9.214;2023-03-03T02:03:56;26.50;;;14.17;;
27031;SDS011;14580;52.918;9.214;2023-03-03T02:06:24;26.43;;;13.40;;
27031;SDS011;14580;52.918;9.214;2023-03-03T02:08:58;25.57;;;12.00;;
27031;SDS011;14580;52.918;9.214;2023-03-03T02:11:32;26.57;;;13.60;;
27031;SDS011;14580;52.918;9.214;2023-03-03T02:14:02;25.70;;;14.07;;
27031;SDS011;14580;52.918;9.214;2023-03-03T02:16:29;27.13;;;13.87;;
27031;SDS011;14580;52.918;9.214;2023-03-03T02:18:56;25.57;;;13.27;;
27031;SDS011;14580;52.918;9.214;2023-03-03T02:21:22;25.63;;;13.23;;
27031;SDS011;14580;52.918;9.214;2023-03-03T02:26:36;24.53;;;12.30;;
27031;SDS011;14580;52.918;9.214;2023-03-03T02:29:06;28.10;;;14.73;;
27031;SDS011;14580;52.918;9.214;2023-03-03T02:31:34;27.33;;;13.73;;
27031;SDS011;14580;52.918;9.214;2023-03-03T02:34:01;30.73;;;13.30;;
27031;SDS011;14580;52.918;9.214;2023-03-03T02:36:29;28.37;;;13.07;;
27031;SDS011;14580;52.918;9.214;2023-03-03T02:44:14;33.33;;;12.90;;
27031;SDS011;14580;52.918;9.214;2023-03-03T02:46:47;21.93;;;11.83;;
27031;SDS011;14580;52.918;9.214;2023-03-03T02:49:16;25.87;;;11.83;;
27031;SDS011;14580;52.918;9.214;2023-03-03T02:51:53;30.23;;;13.53;;
27031;SDS011;14580;52.918;9.214;2023-03-03T02:54:21;25.87;;;13.10;;
27031;SDS011;14580;52.918;9.214;2023-03-03T02:56:50;23.73;;;12.10;;
27031;SDS011;14580;52.918;9.214;2023-03-03T02:59:17;33.07;;;13.63;;
27031;SDS011;14580;52.918;9.214;2023-03-03T03:01:45;25.87;;;12.97;;
27031;SDS011;14580;52.918;9.214;2023-03-03T03:04:13;26.73;;;13.43;;
27031;SDS011;14580;52.918;9.214;2023-03-03T03:06:42;27.60;;;13.77;;
27031;SDS011;14580;52.918;9.214;2023-03-03T03:09:10;23.50;;;13.07;;
27031;SDS011;14580;52.918;9.214;2023-03-03T03:11:37;26.10;;;12.83;;
27031;SDS011;14580;52.918;9.214;2023-03-03T03:14:06;30.13;;;13.43;;
27031;SDS011;14580;52.918;9.214;2023-03-03T03:16:34;27.07;;;13.77;;
27031;SDS011;14580;52.918;9.214;2023-03-03T03:19:02;27.97;;;13.63;;
27031;SDS011;14580;52.918;9.214;2023-03-03T03:21:30;29.80;;;12.60;;
27031;SDS011;14580;52.918;9.214;2023-03-03T03:23:57;26.23;;;12.17;;
27031;SDS011;14580;52.918;9.214;2023-03-03T03:26:24;24.37;;;12.07;;
27031;SDS011;14580;52.918;9.214;2023-03-03T03:28:52;26.07;;;13.70;;
27031;SDS011;14580;52.918;9.214;2023-03-03T03:31:19;27.57;;;13.30;;
27031;SDS011;14580;52.918;9.214;2023-03-03T03:33:46;27.53;;;12.50;;
27031;SDS011;14580;52.918;9.214;2023-03-03T03:36:13;30.47;;;13.40;;
27031;SDS011;14580;52.918;9.214;2023-03-03T03:38:40;27.63;;;13.60;;
27031;SDS011;14580;52.918;9.214;2023-03-03T03:41:08;28.87;;;13.60;;
27031;SDS011;14580;52.918;9.214;2023-03-03T03:43:37;25.33;;;13.43;;
27031;SDS011;14580;52.918;9.214;2023-03-03T03:46:04;29.73;;;14.00;;
27031;SDS011;14580;52.918;9.214;2023-03-03T03:48:30;28.30;;;13.57;;
27031;SDS011;14580;52.918;9.214;2023-03-03T03:50:57;27.83;;;13.33;;
27031;SDS011;14580;52.918;9.214;2023-03-03T03:53:24;27.63;;;13.37;;
27031;SDS011;14580;52.918;9.214;2023-03-03T03:55:51;26.10;;;13.00;;
27031;SDS011;14580;52.918;9.214;2023-03-03T03:58:18;31.53;;;14.77;;
27031;SDS011;14580;52.918;9.214;2023-03-03T04:00:45;27.20;;;13.07;;
27031;SDS011;14580;52.918;9.214;2023-03-03T04:03:12;30.10;;;14.27;;
27031;SDS011;14580;52.918;9.214;2023-03-03T04:05:39;27.93;;;13.47;;
27031;SDS011;14580;52.918;9.214;2023-03-03T04:08:06;28.43;;;13.87;;
27031;SDS011;14580;52.918;9.214;2023-03-03T04:10:33;27.03;;;12.00;;
27031;SDS011;14580;52.918;9.214;2023-03-03T04:13:00;23.83;;;11.53;;
27031;SDS011;14580;52.918;9.214;2023-03-03T04:15:26;25.50;;;12.43;;
27031;SDS011;14580;52.918;9.214;2023-03-03T04:17:53;30.00;;;13.73;;
27031;SDS011;14580;52.918;9.214;2023-03-03T04:20:20;23.80;;;12.53;;
27031;SDS011;14580;52.918;9.214;2023-03-03T04:22:47;25.07;;;12.13;;
27031;SDS011;14580;52.918;9.214;2023-03-03T04:25:14;27.77;;;12.27;;
27031;SDS011;14580;52.918;9.214;2023-03-03T04:27:42;25.03;;;12.90;;
27031;SDS011;14580;52.918;9.214;2023-03-03T04:30:09;25.03;;;13.10;;
27031;SDS011;14580;52.918;9.214;2023-03-03T04:32:37;23.07;;;11.60;;
27031;SDS011;14580;52.918;9.214;2023-03-03T04:35:04;26.50;;;12.37;;
27031;SDS011;14580;52.918;9.214;2023-03-03T04:37:31;23.00;;;10.37;;
27031;SDS011;14580;52.918;9.214;2023-03-03T04:39:57;25.23;;;11.47;;
27031;SDS011;14580;52.918;9.214;2023-03-03T04:42:24;20.30;;;11.30;;
27031;SDS011;14580;52.918;9.214;2023-03-03T04:44:52;20.70;;;10.53;;
27031;SDS011;14580;52.918;9.214;2023-03-03T04:47:19;25.00;;;12.17;;
27031;SDS011;14580;52.918;9.214;2023-03-03T04:49:45;20.90;;;11.67;;
27031;SDS011;14580;52.918;9.214;2023-03-03T04:52:12;21.77;;;11.30;;
27031;SDS011;14580;52.918;9.214;2023-03-03T04:54:38;22.03;;;11.80;;
27031;SDS011;14580;52.918;9.214;2023-03-03T04:57:05;29.80;;;12.33;;
27031;SDS011;14580;52.918;9.214;2023-03-03T04:59:33;24.70;;;11.77;;
27031;SDS011;14580;52.918;9.214;2023-03-03T05:02:01;27.77;;;12.00;;
27031;SDS011;14580;52.918;9.214;2023-03-03T05:04:29;25.63;;;12.83;;
27031;SDS011;14580;52.918;9.214;2023-03-03T05:06:56;22.70;;;12.20;;
27031;SDS011;14580;52.918;9.214;2023-03-03T05:09:22;23.10;;;12.10;;
27031;SDS011;14580;52.918;9.214;2023-03-03T05:11:49;23.23;;;11.80;;
27031;SDS011;14580;52.918;9.214;2023-03-03T05:14:15;23.77;;;12.47;;
27031;SDS011;14580;52.918;9.214;2023-03-03T05:16:42;24.63;;;12.47;;
27031;SDS011;14580;52.918;9.214;2023-03-03T05:19:08;25.60;;;12.40;;
27031;SDS011;14580;52.918;9.214;2023-03-03T05:21:35;26.57;;;12.03;;
27031;SDS011;14580;52.918;9.214;2023-03-03T05:24:06;23.63;;;12.47;;
27031;SDS011;14580;52.918;9.214;2023-03-03T05:26:38;22.43;;;11.50;;
27031;SDS011;14580;52.918;9.214;2023-03-03T05:29:05;22.77;;;10.67;;
27031;SDS011;14580;52.918;9.214;2023-03-03T05:31:33;25.20;;;11.30;;
27031;SDS011;14580;52.918;9.214;2023-03-03T05:34:00;21.90;;;10.60;;
27031;SDS011;14580;52.918;9.214;2023-03-03T05:36:26;27.50;;;11.73;;
27031;SDS011;14580;52.918;9.214;2023-03-03T05:38:52;21.77;;;10.50;;
27031;SDS011;14580;52.918;9.214;2023-03-03T05:41:19;21.13;;;11.30;;
27031;SDS011;14580;52.918;9.214;2023-03-03T05:43:46;23.97;;;12.03;;
27031;SDS011;14580;52.918;9.214;2023-03-03T05:46:12;21.67;;;11.50;;
27031;SDS011;14580;52.918;9.214;2023-03-03T05:48:39;27.23;;;11.83;;
27031;SDS011;14580;52.918;9.214;2023-03-03T05:51:06;26.07;;;12.07;;
27031;SDS011;14580;52.918;9.214;2023-03-03T05:53:32;22.70;;;11.93;;
27031;SDS011;14580;52.918;9.214;2023-03-03T05:55:59;22.63;;;11.63;;
27031;SDS011;14580;52.918;9.214;2023-03-03T05:58:25;25.23;;;12.70;;
27031;SDS011;14580;52.918;9.214;2023-03-03T06:00:54;27.97;;;13.07;;
27031;SDS011;14580;52.918;9.214;2023-03-03T06:03:21;26.47;;;12.37;;
27031;SDS011;14580;52.918;9.214;2023-03-03T06:05:49;23.60;;;11.60;;
27031;SDS011;14580;52.918;9.214;2023-03-03T06:08:16;22.53;;;11.87;;
27031;SDS011;14580;52.918;9.214;2023-03-03T06:10:43;25.13;;;11.80;;
27031;SDS011;14580;52.918;9.214;2023-03-03T06:13:10;25.77;;;12.17;;
27031;SDS011;14580;52.918;9.214;2023-03-03T06:15:37;27.27;;;12.50;;
27031;SDS011;14580;52.918;9.214;2023-03-03T06:18:05;22.93;;;11.97;;
27031;SDS011;14580;52.918;9.214;2023-03-03T06:20:34;23.50;;;11.90;;
27031;SDS011;14580;52.918;9.214;2023-03-03T06:23:02;30.33;;;13.93;;
27031;SDS011;14580;52.918;9.214;2023-03-03T06:25:29;22.00;;;10.57;;
27031;SDS011;14580;52.918;9.214;2023-03-03T06:27:56;29.23;;;13.30;;
27031;SDS011;14580;52.918;9.214;2023-03-03T06:30:22;29.73;;;13.33;;
27031;SDS011;14580;52.918;9.214;2023-03-03T06:32:53;30.83;;;13.87;;
27031;SDS011;14580;52.918;9.214;2023-03-03T06:35:25;31.30;;;13.40;;
27031;SDS011;14580;52.918;9.214;2023-03-03T06:38:00;28.57;;;13.70;;
27031;SDS011;14580;52.918;9.214;2023-03-03T06:40:27;27.97;;;12.17;;
27031;SDS011;14580;52.918;9.214;2023-03-03T06:42:54;32.23;;;13.37;;
27031;SDS011;14580;52.918;9.214;2023-03-03T06:45:21;29.23;;;12.13;;
27031;SDS011;14580;52.918;9.214;2023-03-03T06:47:47;31.50;;;12.53;;
27031;SDS011;14580;52.918;9.214;2023-03-03T06:50:15;28.00;;;13.20;;
27031;SDS011;14580;52.918;9.214;2023-03-03T06:52:44;28.03;;;13.23;;
27031;SDS011;14580;52.918;9.214;2023-03-03T06:55:12;30.13;;;12.37;;
27031;SDS011;14580;52.918;9.214;2023-03-03T06:57:48;29.23;;;12.37;;
27031;SDS011;14580;52.918;9.214;2023-03-03T07:00:25;22.97;;;11.77;;
27031;SDS011;14580;52.918;9.214;2023-03-03T07:02:56;21.93;;;11.70;;
27031;SDS011;14580;52.918;9.214;2023-03-03T07:05:32;32.90;;;14.53;;
27031;SDS011;14580;52.918;9.214;2023-03-03T07:07:59;28.50;;;14.10;;
27031;SDS011;14580;52.918;9.214;2023-03-03T07:10:26;26.00;;;12.70;;
27031;SDS011;14580;52.918;9.214;2023-03-03T07:13:07;29.50;;;13.43;;
27031;SDS011;14580;52.918;9.214;2023-03-03T07:15:49;32.37;;;15.20;;
27031;SDS011;14580;52.918;9.214;2023-03-03T07:23:41;33.33;;;15.80;;
27031;SDS011;14580;52.918;9.214;2023-03-03T07:26:13;37.57;;;15.50;;
27031;SDS011;14580;52.918;9.214;2023-03-03T07:29:01;34.77;;;15.13;;
27031;SDS011;14580;52.918;9.214;2023-03-03T07:31:51;31.60;;;14.47;;
27031;SDS011;14580;52.918;9.214;2023-03-03T07:34:23;37.77;;;16.57;;
27031;SDS011;14580;52.918;9.214;2023-03-03T07:37:21;42.03;;;18.27;;
27031;SDS011;14580;52.918;9.214;2023-03-03T07:52:26;48.63;;;19.17;;
27031;SDS011;14580;52.918;9.214;2023-03-03T07:55:22;52.33;;;20.17;;
27031;SDS011;14580;52.918;9.214;2023-03-03T07:57:55;46.80;;;19.57;;
27031;SDS011;14580;52.918;9.214;2023-03-03T08:03:59;45.67;;;19.47;;
27031;SDS011;14580;52.918;9.214;2023-03-03T08:06:37;55.57;;;20.60;;
27031;SDS011;14580;52.918;9.214;2023-03-03T08:12:23;51.97;;;22.00;;
27031;SDS011;14580;52.918;9.214;2023-03-03T08:15:20;42.80;;;17.67;;
27031;SDS011;14580;52.918;9.214;2023-03-03T08:17:49;45.70;;;17.13;;
27031;SDS011;14580;52.918;9.214;2023-03-03T08:23:14;41.73;;;18.53;;
27031;SDS011;14580;52.918;9.214;2023-03-03T08:25:42;35.40;;;15.17;;
27031;SDS011;14580;52.918;9.214;2023-03-03T08:28:10;37.83;;;16.47;;
27031;SDS011;14580;52.918;9.214;2023-03-03T08:30:37;40.53;;;14.67;;
27031;SDS011;14580;52.918;9.214;2023-03-03T08:33:04;42.23;;;16.63;;
27031;SDS011;14580;52.918;9.214;2023-03-03T08:35:30;36.13;;;15.07;;
27031;SDS011;14580;52.918;9.214;2023-03-03T08:37:57;37.80;;;15.50;;
27031;SDS011;14580;52.918;9.214;2023-03-03T08:40:23;34.87;;;14.53;;
27031;SDS011;14580;52.918;9.214;2023-03-03T08:42:50;40.10;;;15.57;;
27031;SDS011;14580;52.918;9.214;2023-03-03T08:45:18;38.77;;;16.67;;
27031;SDS011;14580;52.918;9.214;2023-03-03T08:47:45;43.03;;;16.97;;
27031;SDS011;14580;52.918;9.214;2023-03-03T08:50:12;41.80;;;15.77;;
27031;SDS011;14580;52.918;9.214;2023-03-03T08:52:40;32.77;;;14.80;;
27031;SDS011;14580;52.918;9.214;2023-03-03T08:55:07;24.83;;;9.83;;
27031;SDS011;14580;52.918;9.214;2023-03-03T08:57:34;22.03;;;10.80;;
27031;SDS011;14580;52.918;9.214;2023-03-03T09:00:00;28.67;;;12.63;;
27031;SDS011;14580;52.918;9.214;2023-03-03T09:02:27;32.50;;;14.87;;
27031;SDS011;14580;52.918;9.214;2023-03-03T09:04:53;40.60;;;15.53;;
27031;SDS011;14580;52.918;9.214;2023-03-03T09:07:20;30.97;;;14.10;;
27031;SDS011;14580;52.918;9.214;2023-03-03T09:09:46;27.53;;;11.67;;
27031;SDS011;14580;52.918;9.214;2023-03-03T09:14:47;20.57;;;9.63;;
27031;SDS011;14580;52.918;9.214;2023-03-03T09:17:18;19.63;;;10.53;;
27031;SDS011;14580;52.918;9.214;2023-03-03T09:19:58;17.60;;;9.40;;
27031;SDS011;14580;52.918;9.214;2023-03-03T09:22:48;21.60;;;9.97;;
27031;SDS011;14580;52.918;9.214;2023-03-03T09:25:32;23.70;;;10.13;;
27031;SDS011;14580;52.918;9.214;2023-03-03T09:28:01;20.83;;;9.57;;
27031;SDS011;14580;52.918;9.214;2023-03-03T09:30:44;22.40;;;9.83;;
27031;SDS011;14580;52.918;9.214;2023-03-03T09:33:26;21.00;;;9.87;;
27031;SDS011;14580;52.918;9.214;2023-03-03T09:36:22;25.40;;;10.07;;
27031;SDS011;14580;52.918;9.214;2023-03-03T09:38:55;21.90;;;10.67;;
27031;SDS011;14580;52.918;9.214;2023-03-03T09:47:10;33.37;;;14.80;;
27031;SDS011;14580;52.918;9.214;2023-03-03T09:49:50;30.97;;;14.40;;
27031;SDS011;14580;52.918;9.214;2023-03-03T10:04:37;33.33;;;16.50;;
27031;SDS011;14580;52.918;9.214;2023-03-03T10:07:22;34.47;;;16.67;;
27031;SDS011;14580;52.918;9.214;2023-03-03T10:13:47;35.83;;;16.07;;
27031;SDS011;14580;52.918;9.214;2023-03-03T10:16:48;31.30;;;15.47;;
27031;SDS011;14580;52.918;9.214;2023-03-03T10:30:39;27.60;;;15.40;;
27031;SDS011;14580;52.918;9.214;2023-03-03T10:36:10;27.23;;;13.80;;
27031;SDS011;14580;52.918;9.214;2023-03-03T10:44:34;27.83;;;14.30;;
27031;SDS011;14580;52.918;9.214;2023-03-03T10:59:25;28.27;;;14.30;;
27031;SDS011;14580;52.918;9.214;2023-03-03T11:02:20;40.03;;;16.13;;
27031;SDS011;14580;52.918;9.214;2023-03-03T11:08:15;45.10;;;17.67;;
27031;SDS011;14580;52.918;9.214;2023-03-03T11:16:49;42.43;;;17.93;;
27031;SDS011;14580;52.918;9.214;2023-03-03T11:22:30;43.90;;;17.90;;
27031;SDS011;14580;52.918;9.214;2023-03-03T11:25:26;40.13;;;16.57;;
27031;SDS011;14580;52.918;9.214;2023-03-03T11:28:28;45.47;;;17.77;;
27031;SDS011;14580;52.918;9.214;2023-03-03T11:36:52;34.93;;;15.97;;
27031;SDS011;14580;52.918;9.214;2023-03-03T11:39:28;34.60;;;15.27;;
27031;SDS011;14580;52.918;9.214;2023-03-03T11:44:46;28.83;;;13.23;;
27031;SDS011;14580;52.918;9.214;2023-03-03T11:47:39;28.43;;;13.87;;
27031;SDS011;14580;52.918;9.214;2023-03-03T11:50:54;33.53;;;15.80;;
27031;SDS011;14580;52.918;9.214;2023-03-03T11:56:09;30.57;;;12.57;;
27031;SDS011;14580;52.918;9.214;2023-03-03T11:58:47;30.93;;;12.77;;
27031;SDS011;14580;52.918;9.214;2023-03-03T12:02:28;27.13;;;13.07;;
27031;SDS011;14580;52.918;9.214;2023-03-03T12:05:07;26.47;;;12.83;;
27031;SDS011;14580;52.918;9.214;2023-03-03T12:07:50;27.73;;;12.63;;
27031;SDS011;14580;52.918;9.214;2023-03-03T12:11:00;24.23;;;12.50;;
27031;SDS011;14580;52.918;9.214;2023-03-03T12:14:01;29.87;;;13.27;;
27031;SDS011;14580;52.918;9.214;2023-03-03T12:20:02;27.37;;;12.30;;
27031;SDS011;14580;52.918;9.214;2023-03-03T12:26:24;23.43;;;13.00;;
27031;SDS011;14580;52.918;9.214;2023-03-03T12:29:22;26.87;;;12.47;;
27031;SDS011;14580;52.918;9.214;2023-03-03T12:40:33;27.00;;;13.10;;
27031;SDS011;14580;52.918;9.214;2023-03-03T12:47:48;28.30;;;14.20;;
27031;SDS011;14580;52.918;9.214;2023-03-03T13:00:58;25.87;;;13.73;;
27031;SDS011;14580;52.918;9.214;2023-03-03T13:03:42;24.67;;;13.27;;
27031;SDS011;14580;52.918;9.214;2023-03-03T13:06:34;30.27;;;15.57;;
27031;SDS011;14580;52.918;9.214;2023-03-03T13:09:18;26.07;;;14.00;;
27031;SDS011;14580;52.918;9.214;2023-03-03T13:15:30;21.93;;;12.27;;
27031;SDS011;14580;52.918;9.214;2023-03-03T13:24:27;21.27;;;11.70;;
27031;SDS011;14580;52.918;9.214;2023-03-03T13:27:31;19.13;;;11.13;;
27031;SDS011;14580;52.918;9.214;2023-03-03T13:32:42;18.57;;;10.77;;
27031;SDS011;14580;52.918;9.214;2023-03-03T13:42:18;18.77;;;10.40;;
27031;SDS011;14580;52.918;9.214;2023-03-03T13:52:20;18.27;;;10.13;;
27031;SDS011;14580;52.918;9.214;2023-03-03T13:55:16;15.87;;;9.03;;
27031;SDS011;14580;52.918;9.214;2023-03-03T14:07:24;19.17;;;8.80;;
27031;SDS011;14580;52.918;9.214;2023-03-03T14:12:56;12.43;;;8.20;;
27031;SDS011;14580;52.918;9.214;2023-03-03T14:18:35;14.50;;;8.80;;
27031;SDS011;14580;52.918;9.214;2023-03-03T14:24:26;12.27;;;7.27;;
27031;SDS011;14580;52.918;9.214;2023-03-03T14:27:39;16.70;;;7.93;;
27031;SDS011;14580;52.918;9.214;2023-03-03T14:35:39;6.13;;;4.00;;
27031;SDS011;14580;52.918;9.214;2023-03-03T14:38:40;9.27;;;4.10;;
27031;SDS011;14580;52.918;9.214;2023-03-03T14:41:12;5.73;;;4.93;;
27031;SDS011;14580;52.918;9.214;2023-03-03T14:44:55;6.40;;;3.37;;
27031;SDS011;14580;52.918;9.214;2023-03-03T14:47:26;4.17;;;3.23;;
27031;SDS011;14580;52.918;9.214;2023-03-03T14:50:27;5.83;;;2.87;;
27031;SDS011;14580;52.918;9.214;2023-03-03T14:53:07;4.90;;;2.70;;
27031;SDS011;14580;52.918;9.214;2023-03-03T14:56:15;5.17;;;2.90;;
27031;SDS011;14580;52.918;9.214;2023-03-03T14:59:39;3.13;;;2.30;;
27031;SDS011;14580;52.918;9.214;2023-03-03T15:03:20;4.97;;;2.00;;
27031;SDS011;14580;52.918;9.214;2023-03-03T15:06:53;2.67;;;1.90;;
27031;SDS011;14580;52.918;9.214;2023-03-03T15:10:26;5.50;;;2.20;;
27031;SDS011;14580;52.918;9.214;2023-03-03T15:13:36;6.40;;;1.83;;
27031;SDS011;14580;52.918;9.214;2023-03-03T15:17:25;4.70;;;1.90;;
27031;SDS011;14580;52.918;9.214;2023-03-03T15:20:46;3.07;;;1.40;;
27031;SDS011;14580;52.918;9.214;2023-03-03T15:24:30;6.47;;;1.80;;
27031;SDS011;14580;52.918;9.214;2023-03-03T15:32:05;2.90;;;1.53;;
27031;SDS011;14580;52.918;9.214;2023-03-03T16:03:39;2.47;;;1.50;;
27031;SDS011;14580;52.918;9.214;2023-03-03T16:14:53;4.07;;;2.30;;
27031;SDS011;14580;52.918;9.214;2023-03-03T16:27:27;3.47;;;2.20;;
27031;SDS011;14580;52.918;9.214;2023-03-03T16:31:41;4.17;;;2.53;;
27031;SDS011;14580;52.918;9.214;2023-03-03T16:35:22;2.53;;;1.97;;
27031;SDS011;14580;52.918;9.214;2023-03-03T16:39:03;4.37;;;1.90;;
27031;SDS011;14580;52.918;9.214;2023-03-03T16:42:32;5.33;;;3.10;;
27031;SDS011;14580;52.918;9.214;2023-03-03T16:46:19;6.63;;;2.40;;
27031;SDS011;14580;52.918;9.214;2023-03-03T16:58:07;7.27;;;2.83;;
27031;SDS011;14580;52.918;9.214;2023-03-03T17:17:35;6.40;;;2.63;;
27031;SDS011;14580;52.918;9.214;2023-03-03T17:21:18;6.27;;;2.70;;
27031;SDS011;14580;52.918;9.214;2023-03-03T17:25:02;3.97;;;2.73;;
27031;SDS011;14580;52.918;9.214;2023-03-03T17:28:07;3.67;;;2.80;;
27031;SDS011;14580;52.918;9.214;2023-03-03T17:43:40;4.67;;;2.90;;
27031;SDS011;14580;52.918;9.214;2023-03-03T18:11:39;3.63;;;2.37;;
27031;SDS011;14580;52.918;9.214;2023-03-03T18:31:00;7.13;;;2.20;;
27031;SDS011;14580;52.918;9.214;2023-03-03T18:34:41;2.13;;;1.87;;
27031;SDS011;14580;52.918;9.214;2023-03-03T18:42:03;2.43;;;2.23;;
27031;SDS011;14580;52.918;9.214;2023-03-03T18:45:55;2.97;;;1.73;;
27031;SDS011;14580;52.918;9.214;2023-03-03T18:53:26;6.07;;;2.03;;
27031;SDS011;14580;52.918;9.214;2023-03-03T19:00:41;4.63;;;1.50;;
27031;SDS011;14580;52.918;9.214;2023-03-03T19:11:41;7.17;;;4.10;;
27031;SDS011;14580;52.918;9.214;2023-03-03T19:16:02;6.37;;;1.80;;
27031;SDS011;14580;52.918;9.214;2023-03-03T19:19:15;4.77;;;2.13;;
27031;SDS011;14580;52.918;9.214;2023-03-03T19:29:08;13.40;;;2.50;;
27031;SDS011;14580;52.918;9.214;2023-03-03T19:48:49;6.27;;;2.93;;
27031;SDS011;14580;52.918;9.214;2023-03-03T19:53:14;7.33;;;2.47;;
27031;SDS011;14580;52.918;9.214;2023-03-03T19:56:54;7.67;;;1.93;;
27031;SDS011;14580;52.918;9.214;2023-03-03T20:05:21;6.80;;;2.13;;
27031;SDS011;14580;52.918;9.214;2023-03-03T20:09:13;17.43;;;2.80;;
27031;SDS011;14580;52.918;9.214;2023-03-03T20:16:44;9.30;;;3.03;;
27031;SDS011;14580;52.918;9.214;2023-03-03T20:33:14;10.93;;;3.07;;
27031;SDS011;14580;52.918;9.214;2023-03-03T20:36:46;12.60;;;2.77;;
27031;SDS011;14580;52.918;9.214;2023-03-03T20:44:39;12.10;;;3.77;;
27031;SDS011;14580;52.918;9.214;2023-03-03T20:56:45;12.70;;;3.93;;
27031;SDS011;14580;52.918;9.214;2023-03-03T21:00:55;9.30;;;3.30;;
27031;SDS011;14580;52.918;9.214;2023-03-03T21:04:43;5.60;;;2.63;;
27031;SDS011;14580;52.918;9.214;2023-03-03T21:08:51;13.13;;;3.07;;
27031;SDS011;14580;52.918;9.214;2023-03-03T21:12:33;11.73;;;4.00;;
27031;SDS011;14580;52.918;9.214;2023-03-03T21:16:11;18.23;;;2.93;;
27031;SDS011;14580;52.918;9.214;2023-03-03T21:19:51;11.13;;;2.37;;
27031;SDS011;14580;52.918;9.214;2023-03-03T21:23:19;16.83;;;3.20;;
27031;SDS011;14580;52.918;9.214;2023-03-03T21:26:46;14.90;;;3.43;;
27031;SDS011;14580;52.918;9.214;2023-03-03T21:34:29;13.30;;;2.93;;
27031;SDS011;14580;52.918;9.214;2023-03-03T21:37:55;13.27;;;2.90;;
27031;SDS011;14580;52.918;9.214;2023-03-03T21:41:26;11.73;;;2.97;;
27031;SDS011;14580;52.918;9.214;2023-03-03T21:45:09;10.53;;;2.20;;
27031;SDS011;14580;52.918;9.214;2023-03-03T21:48:40;11.87;;;2.53;;
27031;SDS011;14580;52.918;9.214;2023-03-03T21:52:06;10.93;;;2.83;;
27031;SDS011;14580;52.918;9.214;2023-03-03T21:55:31;15.30;;;3.50;;
27031;SDS011;14580;52.918;9.214;2023-03-03T21:59:02;11.37;;;2.60;;
27031;SDS011;14580;52.918;9.214;2023-03-03T22:02:30;13.90;;;2.37;;
27031;SDS011;14580;52.918;9.214;2023-03-03T22:05:56;12.33;;;2.47;;
27031;SDS011;14580;52.918;9.214;2023-03-03T22:09:21;8.97;;;2.13;;
27031;SDS011;14580;52.918;9.214;2023-03-03T22:12:45;9.20;;;2.40;;
27031;SDS011;14580;52.918;9.214;2023-03-03T22:16:11;12.37;;;2.63;;
27031;SDS011;14580;52.918;9.214;2023-03-03T22:19:39;16.53;;;6.27;;
27031;SDS011;14580;52.918;9.214;2023-03-03T22:22:57;13.13;;;3.40;;
27031;SDS011;14580;52.918;9.214;2023-03-03T22:25:27;13.23;;;3.13;;
27031;SDS011;14580;52.918;9.214;2023-03-03T22:28:00;9.77;;;2.47;;
27031;SDS011;14580;52.918;9.214;2023-03-03T22:30:27;12.47;;;2.50;;
27031;SDS011;14580;52.918;9.214;2023-03-03T22:33:53;10.33;;;2.70;;
27031;SDS011;14580;52.918;9.214;2023-03-03T22:37:19;15.17;;;3.00;;
27031;SDS011;14580;52.918;9.214;2023-03-03T22:39:46;9.97;;;2.73;;
27031;SDS011;14580;52.918;9.214;2023-03-03T22:43:11;9.13;;;2.93;;
27031;SDS011;14580;52.918;9.214;2023-03-03T22:46:36;12.63;;;2.80;;
27031;SDS011;14580;52.918;9.214;2023-03-03T22:50:01;12.60;;;2.00;;
27031;SDS011;14580;52.918;9.214;2023-03-03T22:53:26;11.37;;;2.53;;
27031;SDS011;14580;52.918;9.214;2023-03-03T22:56:51;11.73;;;2.37;;
27031;SDS011;14580;52.918;9.214;2023-03-03T23:00:16;20.17;;;3.17;;
27031;SDS011;14580;52.918;9.214;2023-03-03T23:03:41;9.20;;;2.73;;
27031;SDS011;14580;52.918;9.214;2023-03-03T23:07:06;20.20;;;2.93;;
27031;SDS011;14580;52.918;9.214;2023-03-03T23:10:36;17.63;;;2.57;;
27031;SDS011;14580;52.918;9.214;2023-03-03T23:14:01;11.00;;;2.37;;
27031;SDS011;14580;52.918;9.214;2023-03-03T23:17:26;8.93;;;2.27;;
27031;SDS011;14580;52.918;9.214;2023-03-03T23:20:52;11.43;;;2.30;;
27031;SDS011;14580;52.918;9.214;2023-03-03T23:24:17;13.37;;;3.37;;
27031;SDS011;14580;52.918;9.214;2023-03-03T23:27:47;17.20;;;3.07;;